Brooklyn, Minnesota
Current Conditions -  °F | °C
As of 5:53 PM on Tuesday 25 Nov 2014 (Local Time) from KHIB Reporting Station
Overcast Overcast  
Wind Chill: 19°   Ceiling: 2400
Heat Index: 19°   Visibility: 10mi
Dew Point:   Wind: 0mph
Humidity: 52%   Direction: NA
Pressure: 29.97"   Gusts: NA
Location:  47.4158°N, 93.0053°W
Report Text: KHIB 252353Z AUTO 00000KT 10SM OVC024 M07/M16 A2997 RMK AO2 SLP179 T10721156 11050 21078 51009
Loading
Personal Weather Stations






























Interactive Weather Map New forecast layout! Learn more

10-Day Weather Forecast

Advertisements
Track Severe Weather on mobile